Time;durP1;ratioP1;P1;durP2;ratioP2;P2;SDS_P1;SDS_P2;PMS_P1;PMS_P2;Temp;Humidity;BMP_temperature;BMP_pressure;BME280_temperature;BME280_humidity;BME280_pressure;Samples;Min_cycle;Max_cycle;Signal;HPM_P1;HPM_P2
2024/02/11 00:01:08;;;;;;;13.88;6.28;;;;;;;14.68;47.32;96259.19;4997285;28;20371;-78
2024/02/11 00:03:35;;;;;;;12.70;6.40;;;;;;;14.57;47.17;96236.06;5003025;28;20382;-78
2024/02/11 00:06:04;;;;;;;9.30;5.00;;;;;;;14.41;48.17;96260.06;5009524;28;20030;-77
2024/02/11 00:08:30;;;;;;;8.95;4.78;;;;;;;14.35;47.82;96249.91;4990787;28;20133;-77
2024/02/11 00:10:55;;;;;;;14.45;6.30;;;;;;;14.33;48.47;96249.22;4992211;28;20034;-77
2024/02/11 00:13:21;;;;;;;20.23;9.05;;;;;;;14.38;47.98;96241.56;4985171;28;20025;-78
2024/02/11 00:15:47;;;;;;;15.75;8.02;;;;;;;14.37;48.33;96250.59;4980832;28;20462;-78
2024/02/11 00:18:13;;;;;;;13.27;6.72;;;;;;;14.40;47.96;96236.00;5001042;28;20096;-76
2024/02/11 00:20:39;;;;;;;16.83;7.00;;;;;;;14.42;47.87;96237.56;4977492;28;20121;-77
2024/02/11 00:23:05;;;;;;;9.70;5.30;;;;;;;14.51;47.56;96233.13;4985825;28;20060;-77
2024/02/11 00:25:31;;;;;;;12.88;4.90;;;;;;;14.57;47.32;96236.06;4973676;28;20397;-79
2024/02/11 00:27:58;;;;;;;9.82;5.50;;;;;;;14.53;47.94;96242.72;4990329;28;20117;-78
2024/02/11 00:30:27;;;;;;;10.27;4.72;;;;;;;14.49;47.83;96243.16;4973826;28;20048;-78
2024/02/11 00:32:56;;;;;;;8.77;4.53;;;;;;;14.46;47.42;96247.00;4973536;28;20391;-77
2024/02/11 00:35:26;;;;;;;13.27;5.75;;;;;;;14.55;47.89;96254.19;4973614;28;20038;-77
2024/02/11 00:37:52;;;;;;;13.55;5.30;;;;;;;14.52;47.95;96245.56;4973947;28;20060;-78
2024/02/11 00:40:21;;;;;;;8.65;4.53;;;;;;;14.59;47.87;96244.81;4997715;28;20549;-77
2024/02/11 00:42:46;;;;;;;9.18;3.55;;;;;;;14.70;47.73;96241.06;4973591;28;20490;-77
2024/02/11 00:45:13;;;;;;;5.78;2.80;;;;;;;14.81;47.28;96238.16;4981951;28;20112;-78
2024/02/11 00:47:41;;;;;;;9.35;2.88;;;;;;;14.96;47.09;96235.75;4988638;28;20040;-79
2024/02/11 00:50:11;;;;;;;5.88;3.30;;;;;;;15.04;46.95;96233.97;4973476;28;20037;-78
2024/02/11 00:52:48;;;;;;;9.05;3.65;;;;;;;15.13;46.55;96224.16;4989755;28;20411;-77
2024/02/11 00:55:14;;;;;;;6.93;3.05;;;;;;;15.18;46.56;96214.59;4973524;28;20030;-77
2024/02/11 00:57:41;;;;;;;6.47;2.90;;;;;;;15.19;46.79;96223.53;4985319;28;20572;-78
2024/02/11 01:00:12;;;;;;;7.20;3.08;;;;;;;15.18;46.75;96221.81;5002624;28;20034;-77
2024/02/11 01:02:38;;;;;;;4.80;2.47;;;;;;;15.23;46.59;96222.19;4978430;28;20046;-79
2024/02/11 01:05:04;;;;;;;5.32;3.10;;;;;;;15.20;46.75;96214.41;4986514;28;20049;-78
2024/02/11 01:07:33;;;;;;;6.50;3.08;;;;;;;15.20;46.50;96212.56;5012095;28;20092;-77
2024/02/11 01:10:00;;;;;;;4.72;2.72;;;;;;;15.26;46.68;96203.03;4981994;28;20022;-76
2024/02/11 01:12:25;;;;;;;4.55;2.72;;;;;;;15.24;46.47;96199.66;4976855;28;20022;-79
2024/02/11 01:14:55;;;;;;;4.53;2.80;;;;;;;15.25;46.44;96204.03;4976774;28;20029;-78
2024/02/11 01:17:23;;;;;;;5.70;2.75;;;;;;;15.30;46.19;96195.47;4985423;28;20030;-77
2024/02/11 01:19:49;;;;;;;5.60;2.40;;;;;;;15.33;46.14;96196.00;4986423;28;20033;-77
2024/02/11 01:22:15;;;;;;;5.93;2.65;;;;;;;15.32;46.57;96205.09;5009354;28;20029;-77
2024/02/11 01:24:41;;;;;;;3.70;2.08;;;;;;;15.24;46.37;96206.88;5000714;28;20023;-78
2024/02/11 01:27:08;;;;;;;4.60;2.47;;;;;;;15.24;46.38;96207.72;4991516;28;20030;-77
2024/02/11 01:29:35;;;;;;;12.30;2.78;;;;;;;15.31;46.34;96200.72;4988050;28;20551;-78
2024/02/11 01:32:01;;;;;;;6.50;2.35;;;;;;;15.28;46.32;96206.44;5012556;28;20087;-77
2024/02/11 01:34:28;;;;;;;5.65;2.67;;;;;;;15.29;46.31;96205.41;4995909;28;20057;-77
2024/02/11 01:36:54;;;;;;;4.43;2.50;;;;;;;15.19;46.36;96213.59;4996330;28;20412;-78
2024/02/11 01:39:19;;;;;;;7.65;2.78;;;;;;;15.25;46.46;96209.44;4995648;28;20030;-77
2024/02/11 01:41:45;;;;;;;8.68;2.33;;;;;;;15.23;46.54;96211.41;4993505;28;20034;-77
2024/02/11 01:44:12;;;;;;;3.55;1.73;;;;;;;15.23;46.49;96215.97;4991540;28;20029;-80
2024/02/11 01:46:38;;;;;;;5.10;2.72;;;;;;;15.15;46.64;96193.34;4977165;28;20112;-77
2024/02/11 01:49:04;;;;;;;3.65;2.33;;;;;;;15.11;46.58;96196.50;4984538;28;20034;-77
2024/02/11 01:51:34;;;;;;;4.97;2.40;;;;;;;15.11;46.83;96210.81;4992372;28;20029;-78
2024/02/11 01:54:01;;;;;;;7.38;2.30;;;;;;;15.07;46.50;96214.81;4996088;28;20018;-77
2024/02/11 01:56:27;;;;;;;6.50;2.70;;;;;;;15.10;46.70;96202.91;4986513;28;20036;-77
2024/02/11 01:58:53;;;;;;;5.03;2.63;;;;;;;15.05;46.94;96208.75;4992331;28;20082;-77
2024/02/11 02:01:19;;;;;;;4.72;2.58;;;;;;;14.98;47.21;96207.66;4984681;28;20087;-77
2024/02/11 02:03:46;;;;;;;6.63;2.22;;;;;;;14.96;46.92;96198.91;4998579;28;20431;-76
2024/02/11 02:06:12;;;;;;;5.68;2.40;;;;;;;14.95;46.84;96199.09;5008132;28;20037;-77
2024/02/11 02:08:39;;;;;;;5.20;2.40;;;;;;;14.92;47.25;96180.53;4994873;28;20405;-77
2024/02/11 02:11:04;;;;;;;6.18;2.30;;;;;;;14.89;47.00;96181.69;4979329;28;20029;-78
2024/02/11 02:13:30;;;;;;;6.10;2.10;;;;;;;14.85;46.90;96182.16;4980966;28;20029;-78
2024/02/11 02:15:56;;;;;;;6.75;2.45;;;;;;;14.92;46.83;96177.84;4998461;28;20029;-77
2024/02/11 02:18:21;;;;;;;3.40;1.88;;;;;;;14.74;47.37;96182.38;4992204;28;20485;-77
2024/02/11 02:20:47;;;;;;;8.88;2.17;;;;;;;14.79;47.37;96185.47;5004173;28;20038;-78
2024/02/11 02:23:13;;;;;;;4.32;2.20;;;;;;;14.80;47.03;96179.91;4985339;28;20087;-77
2024/02/11 02:25:38;;;;;;;5.70;1.92;;;;;;;14.83;47.16;96181.44;4996696;28;20112;-78
2024/02/11 02:28:05;;;;;;;7.55;2.30;;;;;;;14.70;47.51;96175.63;4997192;28;20029;-78
2024/02/11 02:30:33;;;;;;;5.28;2.65;;;;;;;14.70;47.44;96181.84;4993293;28;20029;-78
2024/02/11 02:32:59;;;;;;;7.05;2.80;;;;;;;14.58;47.77;96175.84;4979332;28;20026;-77
2024/02/11 02:35:25;;;;;;;6.32;2.47;;;;;;;14.55;47.58;96180.72;4986672;28;20025;-77
2024/02/11 02:37:54;;;;;;;6.53;2.75;;;;;;;14.53;47.45;96180.84;5014544;28;20132;-78
2024/02/11 02:40:26;;;;;;;3.55;2.20;;;;;;;14.48;47.49;96163.47;4998399;28;20387;-76
2024/02/11 02:42:52;;;;;;;;;;;;;;;14.41;47.51;96168.59;4999475;28;20056;-78
2024/02/11 02:45:17;;;;;;;3.47;1.90;;;;;;;14.34;47.69;96172.03;5013178;28;20004;-75
2024/02/11 02:47:49;;;;;;;5.07;2.60;;;;;;;14.36;48.15;96178.13;4997815;28;20029;-76
2024/02/11 02:50:15;;;;;;;3.00;2.13;;;;;;;14.26;48.25;96167.41;4998388;28;20480;-76
2024/02/11 02:52:49;;;;;;;5.57;2.20;;;;;;;14.22;48.51;96173.22;5005538;28;20088;-77
2024/02/11 02:55:17;;;;;;;6.55;2.40;;;;;;;14.10;48.67;96170.75;4986380;28;20124;-78
2024/02/11 02:57:43;;;;;;;5.45;2.28;;;;;;;14.00;49.21;96179.84;4979607;28;20092;-77
2024/02/11 03:00:10;;;;;;;5.07;2.17;;;;;;;13.94;49.25;96167.88;4997777;28;20029;-78
2024/02/11 03:02:35;;;;;;;7.13;2.60;;;;;;;14.02;48.96;96181.44;4997653;28;20133;-78
2024/02/11 03:05:03;;;;;;;3.40;1.88;;;;;;;14.00;49.25;96164.56;4989566;28;20055;-77
2024/02/11 03:07:28;;;;;;;6.18;2.38;;;;;;;13.98;49.29;96153.13;4998017;28;20553;-78
2024/02/11 03:09:54;;;;;;;2.58;1.60;;;;;;;13.97;49.00;96164.03;4997437;28;20128;-78
2024/02/11 03:12:20;;;;;;;6.18;2.17;;;;;;;13.96;49.51;96165.03;4994368;28;20033;-77
2024/02/11 03:14:47;;;;;;;4.70;1.60;;;;;;;13.90;49.36;96162.94;5010176;28;20029;-78
2024/02/11 03:17:13;;;;;;;5.28;2.05;;;;;;;13.81;49.69;96161.16;5013591;28;20500;-79
2024/02/11 03:19:41;;;;;;;2.88;2.00;;;;;;;13.81;49.71;96161.16;4996560;28;20029;-78
2024/02/11 03:22:13;;;;;;;5.38;1.98;;;;;;;13.81;49.52;96179.97;5013931;28;20033;-77
2024/02/11 03:24:39;;;;;;;7.30;2.20;;;;;;;13.81;49.76;96182.66;4991485;28;20044;-78
2024/02/11 03:27:05;;;;;;;5.75;2.10;;;;;;;13.86;49.23;96180.38;4977565;28;20508;-78
2024/02/11 03:29:32;;;;;;;7.93;2.03;;;;;;;13.92;48.88;96177.09;4981744;28;20033;-77
2024/02/11 03:31:57;;;;;;;6.30;1.90;;;;;;;13.93;48.81;96176.09;5013334;28;20466;-77
2024/02/11 03:34:25;;;;;;;1.67;1.42;;;;;;;14.01;48.50;96179.72;4997100;28;20131;-78
2024/02/11 03:36:51;;;;;;;9.18;2.42;;;;;;;14.10;48.38;96188.72;4981340;28;20026;-77
2024/02/11 03:39:19;;;;;;;5.10;2.05;;;;;;;14.17;48.26;96188.97;4980839;28;20029;-77
2024/02/11 03:41:45;;;;;;;5.53;1.73;;;;;;;14.11;48.22;96175.16;4983610;28;20440;-79
2024/02/11 03:44:11;;;;;;;5.22;2.08;;;;;;;14.14;48.30;96168.63;5002451;28;20105;-77
2024/02/11 03:46:37;;;;;;;10.90;2.42;;;;;;;14.05;48.90;96169.53;5013330;28;20065;-77
2024/02/11 03:49:02;;;;;;;3.30;1.83;;;;;;;14.01;48.72;96165.44;4996660;28;20064;-78
2024/02/11 03:51:29;;;;;;;3.55;1.83;;;;;;;13.97;48.55;96153.28;5013021;28;20021;-78
2024/02/11 03:53:58;;;;;;;3.92;1.83;;;;;;;14.08;48.63;96174.59;4982209;28;20037;-79
2024/02/11 03:56:28;;;;;;;2.13;1.50;;;;;;;14.08;48.37;96155.78;4994814;28;20022;-77
2024/02/11 03:58:54;;;;;;;4.57;1.80;;;;;;;14.11;48.62;96164.41;4985548;28;20029;-77
2024/02/11 04:01:20;;;;;;;4.13;1.92;;;;;;;14.20;48.36;96161.78;5011488;28;20455;-77
2024/02/11 04:03:47;;;;;;;6.05;1.92;;;;;;;14.22;48.19;96168.69;4992061;28;20439;-79
2024/02/11 04:06:13;;;;;;;3.90;1.73;;;;;;;14.26;48.13;96162.03;4979945;28;20060;-79
2024/02/11 04:08:42;;;;;;;2.45;1.50;;;;;;;14.38;47.84;96174.28;4999270;28;20417;-78
2024/02/11 04:11:09;;;;;;;2.83;1.70;;;;;;;14.42;47.94;96159.56;4995713;28;20037;-79
2024/02/11 04:13:36;;;;;;;3.97;1.75;;;;;;;14.39;47.96;96156.31;4976999;28;20493;-78
2024/02/11 04:16:11;;;;;;;4.78;1.83;;;;;;;14.40;48.16;96164.22;4983859;28;20033;-78
2024/02/11 04:18:38;;;;;;;2.58;1.55;;;;;;;14.36;48.01;96152.09;4994254;28;20378;-78
2024/02/11 04:21:04;;;;;;;6.25;2.08;;;;;;;14.35;48.17;96133.41;5002905;28;20029;-78
2024/02/11 04:23:32;;;;;;;10.25;1.80;;;;;;;14.31;48.00;96138.19;4976904;28;20040;-78
2024/02/11 04:26:01;;;;;;;2.17;1.38;;;;;;;14.38;47.98;96141.16;4993452;28;20408;-78
2024/02/11 04:28:26;;;;;;;5.35;2.22;;;;;;;14.35;48.15;96130.72;4992788;28;20030;-78
2024/02/11 04:30:52;;;;;;;5.18;2.28;;;;;;;14.26;48.10;96134.28;4994088;28;20091;-78
2024/02/11 04:33:20;;;;;;;3.78;2.00;;;;;;;14.31;48.07;96143.56;4982330;28;20040;-78
2024/02/11 04:35:46;;;;;;;5.60;2.05;;;;;;;14.29;48.27;96148.28;4985557;28;20083;-78
2024/02/11 04:38:12;;;;;;;7.65;2.67;;;;;;;14.32;48.13;96150.66;5000055;28;20037;-79
2024/02/11 04:40:39;;;;;;;5.10;2.53;;;;;;;14.39;48.17;96151.78;4981385;28;20540;-78
2024/02/11 04:43:04;;;;;;;9.88;3.30;;;;;;;14.37;48.38;96142.16;5004673;28;20033;-77
2024/02/11 04:45:30;;;;;;;4.60;1.95;;;;;;;14.36;48.39;96118.97;4996762;28;20091;-78
2024/02/11 04:47:58;;;;;;;22.27;2.45;;;;;;;14.39;48.23;96108.75;4997206;28;20459;-78
2024/02/11 04:50:26;;;;;;;4.03;1.83;;;;;;;14.50;48.12;96095.03;4997506;28;20026;-77
2024/02/11 04:52:56;;;;;;;5.47;2.33;;;;;;;14.60;47.99;96090.44;5012496;28;20051;-78
2024/02/11 04:55:43;;;;;;;7.53;2.10;;;;;;;14.62;47.96;96087.56;4995850;28;20473;-77
2024/02/11 04:58:19;;;;;;;5.57;2.20;;;;;;;14.59;47.94;96077.97;5011438;28;20030;-77
2024/02/11 05:00:49;;;;;;;8.55;2.47;;;;;;;14.59;47.95;96086.03;4986128;28;20061;-77
2024/02/11 05:03:17;;;;;;;4.00;1.77;;;;;;;14.52;48.02;96084.13;4996575;28;20050;-78
2024/02/11 05:05:44;;;;;;;2.38;1.73;;;;;;;14.55;47.72;96081.16;5012732;28;20124;-78
2024/02/11 05:08:10;;;;;;;3.20;1.70;;;;;;;14.58;47.70;96065.50;4980779;28;20475;-77
2024/02/11 05:10:39;;;;;;;3.10;1.85;;;;;;;14.69;47.80;96071.66;4992883;28;20108;-77
2024/02/11 05:13:08;;;;;;;5.15;1.80;;;;;;;14.62;47.78;96064.19;4976941;28;20026;-76
2024/02/11 05:15:37;;;;;;;3.75;2.08;;;;;;;14.60;47.63;96063.53;4994081;28;20102;-78
2024/02/11 05:18:03;;;;;;;5.65;2.15;;;;;;;14.49;47.82;96076.34;4991467;28;20042;-77
2024/02/11 05:20:29;;;;;;;5.05;2.08;;;;;;;14.46;47.94;96066.75;4994529;28;20073;-78
2024/02/11 05:22:57;;;;;;;6.93;2.20;;;;;;;14.35;48.15;96093.91;4996286;28;20033;-77
2024/02/11 05:25:25;;;;;;;5.50;1.85;;;;;;;14.38;48.28;96096.28;4995294;28;20022;-77
2024/02/11 05:28:24;;;;;;;5.55;2.10;;;;;;;14.38;48.42;96095.44;4989441;28;20029;-77
2024/02/11 05:30:50;;;;;;;5.78;2.50;;;;;;;14.35;48.40;96085.84;4965883;28;20494;-77
2024/02/11 05:33:16;;;;;;;3.35;1.83;;;;;;;14.38;48.56;96088.22;4983744;28;20034;-77
2024/02/11 05:35:43;;;;;;;6.70;2.17;;;;;;;14.36;48.71;96087.53;4994650;28;20117;-77
2024/02/11 05:38:10;;;;;;;8.05;2.10;;;;;;;14.31;49.09;96105.91;4981578;28;20069;-77
2024/02/11 05:40:45;;;;;;;3.08;2.10;;;;;;;14.37;49.01;96099.97;4984703;28;20041;-76
2024/02/11 05:43:12;;;;;;;5.40;2.30;;;;;;;14.47;48.80;96100.75;4996083;28;20113;-78
2024/02/11 05:45:38;;;;;;;13.00;5.30;;;;;;;14.51;48.95;96106.66;5000629;28;20110;-77
2024/02/11 05:48:05;;;;;;;65.78;34.67;;;;;;;14.56;48.70;96104.34;4979115;28;20620;-77
2024/02/11 05:50:34;;;;;;;8.98;5.07;;;;;;;14.60;48.42;96101.19;4989787;28;20041;-78
2024/02/11 05:53:00;;;;;;;10.27;3.22;;;;;;;14.59;48.68;96110.25;4981598;28;20029;-77
2024/02/11 05:55:26;;;;;;;9.57;2.70;;;;;;;14.48;48.92;96107.81;4995176;28;20449;-77
2024/02/11 05:57:52;;;;;;;12.13;3.92;;;;;;;14.48;49.66;96123.97;4996013;28;20536;-77
2024/02/11 06:00:31;;;;;;;11.38;5.95;;;;;;;14.41;49.83;96114.81;5011874;28;20115;-77
2024/02/11 06:02:57;;;;;;;17.73;8.90;;;;;;;14.54;49.33;96117.97;4991591;28;20449;-77
2024/02/11 06:05:24;;;;;;;63.00;23.40;;;;;;;14.91;48.52;96133.06;4997630;28;20033;-79
2024/02/11 06:07:51;;;;;;;23.65;10.32;;;;;;;15.22;47.78;96123.53;4987431;28;20030;-80
2024/02/11 06:10:25;;;;;;;15.57;5.13;;;;;;;15.52;46.94;96109.59;4996947;28;20033;-77
2024/02/11 06:12:51;;;;;;;9.38;3.90;;;;;;;15.73;46.17;96117.28;4976338;28;20557;-77
2024/02/11 06:15:20;;;;;;;8.52;3.50;;;;;;;15.92;45.87;96116.19;4991952;28;20133;-76
2024/02/11 06:17:50;;;;;;;9.02;3.58;;;;;;;16.15;45.75;96130.78;4982809;28;20034;-78
2024/02/11 06:20:18;;;;;;;18.33;8.30;;;;;;;16.39;45.50;96125.44;4993001;28;20405;-79
2024/02/11 06:22:49;;;;;;;8.65;3.55;;;;;;;16.41;45.28;96136.06;4978208;28;20038;-78
2024/02/11 06:25:16;;;;;;;11.73;4.20;;;;;;;16.39;45.17;96122.75;4995522;28;20061;-79
2024/02/11 06:27:42;;;;;;;10.40;3.45;;;;;;;16.32;45.50;96119.00;4991177;28;20014;-79
2024/02/11 06:30:12;;;;;;;17.25;5.88;;;;;;;16.27;45.75;96132.97;4990831;28;20065;-78
2024/02/11 06:32:42;;;;;;;22.10;7.20;;;;;;;16.24;45.74;96121.69;4988330;28;20078;-79
2024/02/11 06:35:09;;;;;;;40.78;15.13;;;;;;;16.24;46.03;96132.50;4980287;28;20179;-80
2024/02/11 06:37:43;;;;;;;10.13;4.80;;;;;;;16.19;46.04;96138.38;4998724;28;20022;-78
2024/02/11 06:40:14;;;;;;;19.98;8.43;;;;;;;16.25;46.08;96153.03;4991496;28;20026;-79
2024/02/11 06:42:43;;;;;;;11.57;4.32;;;;;;;16.31;46.36;96138.91;5003864;28;20026;-72
2024/02/11 06:45:12;;;;;;;19.20;4.28;;;;;;;16.31;45.57;96121.84;4975059;28;20022;-80
2024/02/11 06:47:38;;;;;;;4.68;2.85;;;;;;;16.50;45.68;96137.75;4988753;28;20456;-78
2024/02/11 06:50:08;;;;;;;14.75;5.65;;;;;;;16.56;45.91;96127.19;4990946;28;20036;-80
2024/02/11 06:52:34;;;;;;;13.18;5.43;;;;;;;16.64;46.39;96108.28;4991342;28;20030;-81
2024/02/11 06:55:05;;;;;;;9.88;3.80;;;;;;;16.81;45.28;96111.84;4994894;28;20030;-80
2024/02/11 06:57:32;;;;;;;6.13;2.42;;;;;;;17.33;45.24;96125.81;5003560;28;20040;-77
2024/02/11 07:00:12;;;;;;;20.30;8.02;;;;;;;17.26;45.48;96112.13;4988413;28;20483;-79
2024/02/11 07:02:39;;;;;;;4.55;2.95;;;;;;;17.18;45.79;96122.13;4995776;28;20497;-80
2024/02/11 07:05:15;;;;;;;18.88;7.15;;;;;;;17.08;45.26;96156.56;4986691;28;20104;-79
2024/02/11 07:07:42;;;;;;;13.60;4.75;;;;;;;16.89;45.17;96146.13;4994246;28;20034;-74
2024/02/11 07:10:08;;;;;;;24.13;8.05;;;;;;;16.73;45.74;96142.38;4987927;28;20112;-76
2024/02/11 07:12:34;;;;;;;3.55;1.65;;;;;;;16.64;46.09;96146.06;4975984;28;20485;-74
2024/02/11 07:15:09;;;;;;;18.55;6.45;;;;;;;16.52;46.29;96123.06;4975975;28;20095;-77
2024/02/11 07:17:41;;;;;;;15.13;5.57;;;;;;;16.48;46.74;96134.38;4980723;28;20030;-77
2024/02/11 07:20:08;;;;;;;16.52;5.30;;;;;;;16.51;46.51;96129.50;4976603;28;20505;-76
2024/02/11 07:22:34;;;;;;;30.10;10.35;;;;;;;16.51;47.03;96134.06;4992216;28;20068;-75
2024/02/11 07:25:06;;;;;;;8.63;3.33;;;;;;;16.52;46.73;96131.19;4991821;28;20057;-75
2024/02/11 07:27:33;;;;;;;12.20;5.30;;;;;;;16.58;46.78;96138.63;5006757;28;20375;-77
2024/02/11 07:29:59;;;;;;;9.32;4.50;;;;;;;16.57;46.48;96139.66;4979655;28;20132;-81
2024/02/11 07:32:25;;;;;;;23.65;10.60;;;;;;;16.67;46.39;96140.34;4984536;28;20740;-78
2024/02/11 07:34:51;;;;;;;26.02;8.20;;;;;;;16.68;46.33;96125.00;4990812;28;20029;-77
2024/02/11 07:37:17;;;;;;;8.05;4.15;;;;;;;16.73;46.73;96141.56;4981988;28;20030;-78
2024/02/11 07:39:43;;;;;;;11.48;4.47;;;;;;;16.70;47.05;96147.28;4991069;28;20386;-79
2024/02/11 07:42:08;;;;;;;24.17;8.60;;;;;;;16.66;47.03;96133.28;4990727;28;20124;-78
2024/02/11 07:44:35;;;;;;;4.88;2.55;;;;;;;16.70;47.10;96144.59;4972959;28;20066;-77
2024/02/11 07:47:05;;;;;;;19.83;9.13;;;;;;;16.74;47.36;96137.81;4971816;28;20049;-77
2024/02/11 07:49:31;;;;;;;6.75;1.88;;;;;;;16.78;46.99;96118.44;5004587;28;20033;-78
2024/02/11 07:51:57;;;;;;;9.98;4.05;;;;;;;16.97;46.80;96129.91;4979377;28;20099;-79
2024/02/11 07:54:23;;;;;;;11.85;3.85;;;;;;;16.99;46.57;96122.47;4986308;28;20065;-77
2024/02/11 07:56:52;;;;;;;5.25;2.60;;;;;;;17.15;45.94;96130.56;5004755;28;20037;-77
2024/02/11 07:59:19;;;;;;;8.68;3.60;;;;;;;17.19;45.99;96113.00;4980926;28;20057;-77
2024/02/11 08:01:44;;;;;;;5.97;3.55;;;;;;;17.28;46.03;96128.19;4994584;28;20058;-77
2024/02/11 08:04:10;;;;;;;4.93;1.83;;;;;;;17.29;45.86;96127.16;4984598;28;20038;-76
2024/02/11 08:06:36;;;;;;;43.97;20.58;;;;;;;17.41;45.95;96131.19;4996470;28;20053;-77
2024/02/11 08:09:09;;;;;;;5.03;3.03;;;;;;;17.42;45.68;96123.94;4991722;28;20061;-77
2024/02/11 08:11:35;;;;;;;5.63;2.70;;;;;;;17.72;45.46;96152.97;4977523;28;20037;-77
2024/02/11 08:14:00;;;;;;;11.10;2.83;;;;;;;17.69;46.01;96140.63;4992462;28;20021;-78
2024/02/11 08:16:26;;;;;;;7.95;4.00;;;;;;;17.78;46.05;96123.38;4992002;28;20035;-77
2024/02/11 08:18:56;;;;;;;7.60;2.90;;;;;;;18.05;45.33;96143.75;4975865;28;20040;-77
2024/02/11 08:21:21;;;;;;;10.15;5.00;;;;;;;18.32;44.91;96127.03;4983184;28;20489;-78
2024/02/11 08:23:47;;;;;;;8.20;4.30;;;;;;;18.82;44.16;96123.03;5001428;28;20112;-77
2024/02/11 08:26:13;;;;;;;16.88;5.95;;;;;;;19.19;43.83;96116.78;4982461;28;20026;-77
2024/02/11 08:28:39;;;;;;;4.20;2.65;;;;;;;19.46;42.95;96113.50;5004488;28;20034;-78
2024/02/11 08:31:04;;;;;;;31.73;15.02;;;;;;;19.78;42.92;96123.19;5000683;28;20450;-76
2024/02/11 08:33:30;;;;;;;11.63;6.03;;;;;;;20.03;42.29;96128.13;4998399;28;20022;-79
2024/02/11 08:35:59;;;;;;;9.88;5.18;;;;;;;19.73;42.66;96098.47;4979768;28;20379;-78
2024/02/11 08:38:24;;;;;;;16.70;8.30;;;;;;;20.22;42.85;96091.41;5002864;28;20091;-77
2024/02/11 08:40:51;;;;;;;10.80;3.60;;;;;;;20.69;41.09;96112.66;4985258;28;20034;-77
2024/02/11 08:43:19;;;;;;;7.78;3.03;;;;;;;20.50;42.14;96102.41;5000561;28;20101;-79
2024/02/11 08:45:44;;;;;;;7.05;3.70;;;;;;;20.20;41.93;96100.78;4988523;28;20504;-78
2024/02/11 08:48:10;;;;;;;10.40;5.40;;;;;;;20.01;42.85;96108.47;5004423;28;20105;-77
2024/02/11 08:50:36;;;;;;;11.52;3.63;;;;;;;20.64;41.90;96093.38;4985843;28;20109;-77
2024/02/11 08:53:01;;;;;;;8.02;2.08;;;;;;;21.10;41.83;96093.88;4994119;28;20030;-77
2024/02/11 08:55:27;;;;;;;3.90;1.98;;;;;;;21.36;41.25;96095.97;4977682;28;20152;-78
2024/02/11 08:57:53;;;;;;;5.57;2.38;;;;;;;21.77;40.60;96075.13;4989789;28;20033;-76
2024/02/11 09:00:22;;;;;;;4.05;1.88;;;;;;;21.87;40.29;96077.47;4972279;28;20129;-78
2024/02/11 09:02:48;;;;;;;4.35;2.17;;;;;;;21.25;41.40;96086.47;4990486;28;20054;-77
2024/02/11 09:05:14;;;;;;;5.60;2.42;;;;;;;21.31;41.68;96080.25;4978779;28;20471;-76
2024/02/11 09:07:42;;;;;;;5.15;2.90;;;;;;;21.00;41.98;96077.84;4990386;28;20113;-78
2024/02/11 09:10:08;;;;;;;6.32;2.47;;;;;;;20.90;41.56;96093.66;4974947;28;20493;-79
2024/02/11 09:12:34;;;;;;;6.95;3.17;;;;;;;20.43;42.94;96096.06;4995119;28;20026;-79
2024/02/11 09:15:00;;;;;;;6.03;1.65;;;;;;;20.13;42.92;96088.97;4991371;28;20044;-78
2024/02/11 09:17:27;;;;;;;5.80;2.70;;;;;;;19.93;43.67;96105.03;4982901;28;20106;-76
2024/02/11 09:19:53;;;;;;;3.90;2.42;;;;;;;19.97;43.54;96092.75;4979862;28;20180;-77
2024/02/11 09:22:18;;;;;;;10.25;3.38;;;;;;;20.09;43.64;96084.97;4994887;28;20100;-77
2024/02/11 09:24:44;;;;;;;7.30;2.83;;;;;;;19.78;44.05;96091.44;4995161;28;20063;-76
2024/02/11 09:27:13;;;;;;;9.90;2.38;;;;;;;19.60;44.13;96092.84;4983542;28;20026;-78
2024/02/11 09:29:39;;;;;;;6.65;3.67;;;;;;;19.54;44.69;96082.72;5003040;28;20034;-78
2024/02/11 09:32:05;;;;;;;14.57;5.13;;;;;;;19.85;43.79;96091.53;5006710;28;20033;-78
2024/02/11 09:34:31;;;;;;;9.30;3.45;;;;;;;20.15;43.21;96089.66;4986365;28;20117;-77
2024/02/11 09:36:57;;;;;;;4.75;2.10;;;;;;;20.51;42.84;96088.66;4999693;28;20105;-78
2024/02/11 09:39:22;;;;;;;16.48;6.50;;;;;;;20.64;42.59;96101.50;4987870;28;20033;-77
2024/02/11 09:41:48;;;;;;;6.95;2.15;;;;;;;21.10;41.64;96096.59;5005979;28;20105;-78
2024/02/11 09:44:18;;;;;;;15.30;5.53;;;;;;;21.02;41.63;96091.25;4989686;28;20125;-77
2024/02/11 09:46:45;;;;;;;2.10;1.13;;;;;;;20.98;41.91;96089.94;4982408;28;20497;-78
2024/02/11 09:49:14;;;;;;;5.13;2.30;;;;;;;20.78;42.62;96084.34;4988162;28;20064;-78
2024/02/11 09:51:41;;;;;;;6.80;2.13;;;;;;;21.20;41.47;96067.16;4983701;28;20117;-77
2024/02/11 09:54:07;;;;;;;7.05;2.17;;;;;;;21.56;41.12;96089.63;4977885;28;20044;-78
2024/02/11 09:56:33;;;;;;;8.75;2.92;;;;;;;22.00;40.26;96069.41;4974800;28;20283;-77
2024/02/11 09:58:59;;;;;;;15.43;5.00;;;;;;;22.37;40.01;96082.56;4984652;28;20042;-77
2024/02/11 10:01:25;;;;;;;6.28;2.35;;;;;;;22.49;39.60;96067.28;4999558;28;20446;-78
2024/02/11 10:03:54;;;;;;;7.85;3.38;;;;;;;22.58;39.63;96066.06;5005844;28;20095;-79
2024/02/11 10:06:27;;;;;;;6.35;3.38;;;;;;;22.50;39.42;96066.25;4978819;28;20029;-78
2024/02/11 10:08:54;;;;;;;22.95;7.57;;;;;;;22.64;39.74;96057.06;4996611;28;20754;-77
2024/02/11 10:11:20;;;;;;;8.48;1.80;;;;;;;22.67;39.37;96039.50;4990923;28;20034;-78
2024/02/11 10:13:45;;;;;;;13.35;3.42;;;;;;;23.66;38.12;96038.47;4988534;28;20124;-78
2024/02/11 10:16:12;;;;;;;12.50;3.33;;;;;;;23.65;37.92;96044.16;4982023;28;20116;-77
2024/02/11 10:18:39;;;;;;;10.10;2.70;;;;;;;22.93;38.74;96041.41;5002095;28;20067;-78
2024/02/11 10:21:08;;;;;;;4.10;1.80;;;;;;;22.39;39.73;96019.69;4996113;28;20030;-79
2024/02/11 10:23:39;;;;;;;5.82;1.90;;;;;;;22.69;39.30;96026.50;4985723;28;20030;-78
2024/02/11 10:26:07;;;;;;;6.78;2.15;;;;;;;23.89;38.03;96035.28;4982966;28;20063;-77
2024/02/11 10:28:37;;;;;;;2.28;1.30;;;;;;;24.89;36.18;95999.03;4991008;28;20060;-78
2024/02/11 10:31:03;;;;;;;7.72;1.42;;;;;;;24.39;36.60;96009.03;5007895;28;20075;-78
2024/02/11 10:33:29;;;;;;;9.43;1.80;;;;;;;24.33;36.82;96014.53;4987051;28;20034;-78
2024/02/11 10:36:03;;;;;;;10.45;1.52;;;;;;;25.40;35.43;95998.00;4988639;28;20025;-78
2024/02/11 10:38:36;;;;;;;6.85;1.90;;;;;;;26.25;34.60;96003.41;4985006;28;20025;-78
2024/02/11 10:41:01;;;;;;;7.53;1.77;;;;;;;27.42;33.31;95974.41;5000758;28;20035;-79
2024/02/11 10:43:28;;;;;;;8.05;2.30;;;;;;;28.30;32.56;95982.50;4994448;28;20112;-79
2024/02/11 10:45:54;;;;;;;4.20;1.77;;;;;;;28.44;31.76;95984.72;4986149;28;20048;-79
2024/02/11 10:48:21;;;;;;;4.93;1.65;;;;;;;28.18;31.69;95974.25;4977593;28;20035;-78
2024/02/11 10:50:54;;;;;;;4.57;2.05;;;;;;;25.96;33.63;95952.13;5004547;28;20032;-78
2024/02/11 10:53:23;;;;;;;11.68;2.65;;;;;;;25.53;34.58;95959.56;5003359;28;20040;-78
2024/02/11 10:55:50;;;;;;;8.13;2.22;;;;;;;24.99;35.60;95958.34;4985769;28;20037;-79
2024/02/11 10:58:18;;;;;;;8.75;2.47;;;;;;;24.33;36.37;95971.66;5003838;28;20386;-79
2024/02/11 11:00:45;;;;;;;5.00;2.03;;;;;;;24.41;36.74;95957.69;5025115;28;20505;-77
2024/02/11 11:03:13;;;;;;;3.97;1.85;;;;;;;25.17;35.60;95944.72;4996276;28;20112;-78
2024/02/11 11:05:41;;;;;;;6.10;1.55;;;;;;;25.35;35.35;95947.47;4996735;28;20022;-79
2024/02/11 11:08:09;;;;;;;7.20;2.92;;;;;;;25.40;35.26;95954.19;4986458;28;20057;-77
2024/02/11 11:10:36;;;;;;;35.70;12.27;;;;;;;26.02;34.38;95945.72;4977574;28;20026;-78
2024/02/11 11:13:02;;;;;;;7.38;3.38;;;;;;;26.11;34.55;95949.81;4979534;28;20084;-78
2024/02/11 11:15:32;;;;;;;2.95;1.63;;;;;;;27.11;33.34;95955.53;4985786;28;20033;-79
2024/02/11 11:18:01;;;;;;;3.70;1.20;;;;;;;28.21;32.09;95940.75;5010590;28;20025;-78
2024/02/11 11:20:27;;;;;;;4.25;1.77;;;;;;;28.51;32.01;95937.78;4984317;28;20064;-79
2024/02/11 11:22:55;;;;;;;10.38;3.38;;;;;;;29.46;30.76;95935.06;4986543;28;20390;-78
2024/02/11 11:25:32;;;;;;;3.88;1.60;;;;;;;29.61;30.38;95946.31;5005697;28;20060;-78
2024/02/11 11:28:10;;;;;;;6.88;2.00;;;;;;;29.84;30.43;95926.81;4986212;28;20496;-78
2024/02/11 11:30:36;;;;;;;6.15;1.90;;;;;;;30.32;29.63;95915.03;5021659;28;20037;-81
2024/02/11 11:33:04;;;;;;;7.68;2.20;;;;;;;31.04;28.76;95917.47;4999332;28;20037;-79